Time;durP1;ratioP1;P1;durP2;ratioP2;P2;SDS_P1;SDS_P2;PMS_P1;PMS_P2;Temp;Humidity;BMP_temperature;BMP_pressure;BME280_temperature;BME280_humidity;BME280_pressure;Samples;Min_cycle;Max_cycle;Signal;HPM_P1;HPM_P2
2022/02/03 00:01:02;;;;;;;5.13;1.02;;;-0.60;99.90;;;;;;5099992;28;20097;-67
2022/02/03 00:04:28;;;;;;;6.97;1.20;;;-0.70;99.90;;;;;;5097949;28;20139;-67
2022/02/03 00:08:05;;;;;;;5.57;1.20;;;-0.70;99.90;;;;;;5099834;28;20036;-66
2022/02/03 00:25:03;;;;;;;2.63;0.82;;;-0.90;99.90;;;;;;5104274;28;20101;-67
2022/02/03 00:28:23;;;;;;;;;;;-1.00;99.90;;;;;;5100538;28;20118;-66
2022/02/03 00:32:01;;;;;;;4.57;0.70;;;-1.00;99.90;;;;;;5058682;28;19986;-66
2022/02/03 00:48:32;;;;;;;4.88;0.98;;;-1.30;99.90;;;;;;5101298;28;20169;-66
2022/02/03 00:51:47;;;;;;;4.57;1.23;;;-1.30;99.90;;;;;;5086908;28;20851;-67
2022/02/03 00:55:07;;;;;;;11.13;1.40;;;-1.20;99.90;;;;;;5107232;28;20097;-67
2022/02/03 00:58:33;;;;;;;1.38;0.63;;;-1.10;99.90;;;;;;5106469;28;20063;-66
2022/02/03 01:01:58;;;;;;;3.55;1.00;;;-1.00;99.90;;;;;;5104511;28;20513;-66
2022/02/03 01:05:24;;;;;;;3.70;0.90;;;-1.00;99.90;;;;;;5104549;28;20055;-66
2022/02/03 01:08:49;;;;;;;8.95;1.35;;;-1.00;99.90;;;;;;5096259;28;20060;-66
2022/02/03 01:12:27;;;;;;;8.68;1.10;;;-1.00;99.90;;;;;;5104522;28;20040;-66
2022/02/03 01:15:51;;;;;;;9.57;1.35;;;-1.10;99.90;;;;;;5108474;28;20368;-68
2022/02/03 01:20:14;;;;;;;7.80;1.60;;;-1.20;99.90;;;;;;5097677;28;20385;-67
2022/02/03 01:43:23;;;;;;;6.88;1.00;;;-1.30;99.90;;;;;;5106607;28;20912;-66
2022/02/03 01:47:03;;;;;;;15.43;1.92;;;-1.30;99.90;;;;;;5105976;28;20126;-66
2022/02/03 01:53:32;;;;;;;8.75;1.50;;;-0.80;99.90;;;;;;5108543;28;20050;-67
2022/02/03 01:57:00;;;;;;;8.70;1.70;;;-0.70;99.90;;;;;;5095297;28;20044;-66
2022/02/03 02:00:06;;;;;;;;;;;-0.40;99.90;;;;;;5101723;28;20042;-66
2022/02/03 02:03:55;;;;;;;15.13;2.63;;;-0.30;99.90;;;;;;5107733;28;19914;-66
2022/02/03 02:07:01;;;;;;;6.85;1.60;;;-0.10;99.90;;;;;;5092158;28;20499;-67
2022/02/03 02:10:51;;;;;;;11.77;1.50;;;0.10;99.90;;;;;;5101519;28;20457;-66
2022/02/03 02:14:32;;;;;;;5.40;1.13;;;0.20;99.90;;;;;;5095913;28;20100;-67
2022/02/03 02:18:10;;;;;;;6.90;1.70;;;0.30;99.90;;;;;;5105282;28;20177;-67
2022/02/03 02:38:15;;;;;;;9.68;1.55;;;0.60;99.90;;;;;;5090952;28;20415;-67
2022/02/03 02:44:48;;;;;;;11.50;2.35;;;0.70;99.90;;;;;;5102780;28;20077;-66
2022/02/03 02:48:12;;;;;;;9.32;1.45;;;0.70;99.90;;;;;;5109042;28;20047;-67
2022/02/03 02:51:37;;;;;;;12.90;1.75;;;0.80;99.90;;;;;;5105217;28;20060;-67
2022/02/03 02:55:26;;;;;;;9.43;2.30;;;0.80;99.90;;;;;;5103317;28;20549;-67
2022/02/03 02:59:12;;;;;;;11.82;2.45;;;0.80;99.90;;;;;;5103891;28;20114;-66
2022/02/03 03:02:50;;;;;;;9.68;1.73;;;0.90;99.90;;;;;;5102273;28;20043;-67
2022/02/03 03:30:05;;;;;;;6.60;1.42;;;1.00;99.90;;;;;;5104834;28;20038;-67
2022/02/03 03:33:14;;;;;;;8.65;1.80;;;1.00;99.90;;;;;;5106214;28;20085;-67
2022/02/03 03:36:29;;;;;;;11.13;2.05;;;1.00;99.90;;;;;;5103738;28;20039;-67
2022/02/03 03:39:58;;;;;;;9.20;1.88;;;1.00;99.90;;;;;;5105031;28;20475;-67
2022/02/03 03:43:26;;;;;;;5.75;1.20;;;1.00;99.90;;;;;;5102954;28;20035;-67
2022/02/03 03:46:15;;;;;;;6.38;1.27;;;0.90;99.90;;;;;;5107989;28;20035;-63
2022/02/03 03:49:24;;;;;;;7.30;1.50;;;0.90;99.90;;;;;;5107776;28;20023;-64
2022/02/03 03:52:30;;;;;;;;;;;0.80;99.90;;;;;;5104541;28;20074;-64
2022/02/03 03:56:02;;;;;;;13.20;1.40;;;0.80;99.90;;;;;;5087595;28;19952;-64
2022/02/03 04:00:01;;;;;;;12.77;2.50;;;0.70;99.90;;;;;;5099762;28;20034;-64
2022/02/03 04:30:58;;;;;;;10.20;1.38;;;1.10;99.90;;;;;;5103707;28;20058;-63
2022/02/03 04:34:15;;;;;;;5.88;1.27;;;1.10;99.90;;;;;;5099413;28;20450;-63
2022/02/03 04:57:21;;;;;;;5.43;1.23;;;1.20;99.90;;;;;;5109168;28;20070;-63
2022/02/03 05:07:11;;;;;;;13.10;1.55;;;1.20;99.90;;;;;;5109009;28;20085;-63
2022/02/03 05:10:24;;;;;;;5.25;0.93;;;1.10;99.90;;;;;;5101832;28;20558;-64
2022/02/03 05:17:10;;;;;;;8.95;1.40;;;0.90;99.90;;;;;;5062365;28;20063;-63
2022/02/03 05:20:30;;;;;;;9.27;1.65;;;1.00;99.90;;;;;;5099946;28;20503;-64
2022/02/03 05:27:09;;;;;;;8.23;2.03;;;0.90;99.90;;;;;;5098884;28;20047;-64
2022/02/03 05:44:04;;;;;;;3.67;1.25;;;1.00;99.90;;;;;;5101203;28;20499;-64
2022/02/03 05:51:10;;;;;;;10.65;1.75;;;1.00;99.90;;;;;;5107251;28;20042;-64
2022/02/03 06:08:18;;;;;;;12.30;1.73;;;1.10;99.90;;;;;;5091447;28;20047;-63
2022/02/03 06:14:53;;;;;;;21.00;2.63;;;1.10;99.90;;;;;;5106814;28;20165;-64
2022/02/03 06:21:51;;;;;;;11.38;2.50;;;1.10;99.90;;;;;;5109418;28;20455;-64
2022/02/03 06:28:10;;;;;;;6.50;1.88;;;1.00;99.90;;;;;;5090930;28;20157;-64
2022/02/03 06:31:35;;;;;;;9.50;2.40;;;1.00;99.90;;;;;;5105412;28;20062;-63
2022/02/03 06:35:00;;;;;;;8.55;2.00;;;1.00;99.90;;;;;;5103579;28;20122;-64
2022/02/03 06:38:25;;;;;;;14.48;1.95;;;1.00;99.90;;;;;;5105560;28;20555;-63
2022/02/03 06:41:53;;;;;;;9.05;1.67;;;1.00;99.90;;;;;;5109134;28;20031;-63
2022/02/03 06:45:29;;;;;;;11.15;2.10;;;1.10;99.90;;;;;;5105072;28;20048;-63
2022/02/03 06:48:46;;;;;;;12.82;2.05;;;1.10;99.90;;;;;;5098476;28;20054;-62
2022/02/03 06:52:26;;;;;;;10.23;2.28;;;1.20;99.90;;;;;;5110026;28;20089;-64
2022/02/03 06:55:48;;;;;;;8.38;1.95;;;1.20;99.90;;;;;;5104993;28;20028;-62
2022/02/03 06:59:12;;;;;;;14.85;1.85;;;1.20;99.90;;;;;;5104777;28;20103;-64
2022/02/03 07:02:37;;;;;;;10.30;1.63;;;1.20;99.90;;;;;;5104106;28;20040;-63
2022/02/03 07:05:57;;;;;;;7.32;1.70;;;1.30;99.90;;;;;;5107461;28;20171;-63
2022/02/03 07:09:22;;;;;;;9.93;1.67;;;1.30;99.90;;;;;;5102980;28;20032;-64
2022/02/03 07:12:48;;;;;;;5.35;1.48;;;1.30;99.90;;;;;;5104766;28;20035;-64
2022/02/03 07:16:13;;;;;;;13.65;2.40;;;1.40;99.90;;;;;;5107138;28;20023;-63
2022/02/03 07:19:47;;;;;;;10.13;1.67;;;1.40;99.90;;;;;;5108395;28;20036;-63
2022/02/03 07:22:47;;;;;;;;;;;1.50;99.90;;;;;;5099991;28;20078;-64
2022/02/03 07:26:14;;;;;;;12.27;2.10;;;1.60;99.90;;;;;;5107331;28;19926;-64
2022/02/03 07:29:38;;;;;;;18.80;3.20;;;1.70;99.90;;;;;;5101355;28;20031;-64
2022/02/03 07:33:05;;;;;;;10.63;2.20;;;1.70;99.90;;;;;;5103446;28;20616;-64
2022/02/03 07:36:28;;;;;;;22.33;4.53;;;1.90;99.90;;;;;;5107246;28;20024;-65
2022/02/03 07:39:54;;;;;;;19.83;3.95;;;2.00;99.90;;;;;;5101461;28;20069;-64
2022/02/03 07:43:20;;;;;;;24.02;4.32;;;2.20;99.90;;;;;;5099725;28;20035;-64
2022/02/03 07:46:45;;;;;;;12.75;2.55;;;2.30;99.90;;;;;;5106947;28;20043;-63
2022/02/03 07:50:10;;;;;;;16.52;3.15;;;2.50;99.90;;;;;;5103842;28;20063;-64
2022/02/03 07:53:35;;;;;;;12.30;2.22;;;2.70;99.90;;;;;;5103507;28;20054;-63
2022/02/03 07:57:01;;;;;;;9.95;2.20;;;2.90;99.90;;;;;;5108465;28;20408;-63
2022/02/03 08:00:26;;;;;;;8.13;1.77;;;3.00;99.90;;;;;;5104363;28;20486;-64
2022/02/03 08:03:51;;;;;;;10.32;2.13;;;3.20;99.90;;;;;;5100749;28;20095;-64
2022/02/03 08:07:19;;;;;;;7.07;1.73;;;3.40;99.90;;;;;;5088133;28;20036;-63
2022/02/03 08:10:47;;;;;;;9.35;2.33;;;3.60;99.90;;;;;;5101986;28;20448;-63
2022/02/03 08:14:13;;;;;;;17.08;2.78;;;3.70;99.90;;;;;;5094295;28;20596;-63
2022/02/03 08:17:39;;;;;;;9.13;2.30;;;3.80;99.90;;;;;;5095522;28;20077;-63
2022/02/03 08:21:05;;;;;;;6.90;2.35;;;3.90;99.90;;;;;;5104618;28;20055;-63
2022/02/03 08:24:45;;;;;;;10.25;2.80;;;4.00;99.90;;;;;;5099727;28;20043;-64
2022/02/03 08:31:09;;;;;;;7.78;2.20;;;4.30;99.90;;;;;;5102583;28;20189;-65
2022/02/03 08:34:58;;;;;;;9.93;2.65;;;4.40;99.90;;;;;;5099606;28;20040;-63
2022/02/03 08:41:18;;;;;;;9.85;2.08;;;5.60;99.90;;;;;;5108076;28;20028;-64
2022/02/03 08:44:42;;;;;;;12.38;3.47;;;6.60;99.90;;;;;;5096679;28;20067;-64
2022/02/03 08:48:07;;;;;;;8.15;2.58;;;7.90;99.90;;;;;;5102312;28;20035;-64
2022/02/03 08:51:33;;;;;;;13.18;3.38;;;9.10;99.90;;;;;;5104542;28;20035;-63
2022/02/03 09:38:35;;;;;;;9.32;3.63;;;8.00;99.90;;;;;;5102136;28;20525;-65
2022/02/03 09:42:02;;;;;;;13.55;3.38;;;7.70;99.90;;;;;;5104167;28;20027;-64
2022/02/03 09:58:29;;;;;;;13.43;3.75;;;7.40;99.90;;;;;;5104703;28;20039;-64
2022/02/03 10:01:39;;;;;;;11.20;4.68;;;7.30;99.90;;;;;;5110763;28;20490;-63
2022/02/03 10:05:20;;;;;;;12.35;3.50;;;7.20;99.90;;;;;;5104133;28;20083;-62
2022/02/03 10:08:38;;;;;;;11.73;3.47;;;7.20;99.90;;;;;;5107455;28;20647;-60
2022/02/03 10:12:06;;;;;;;8.30;2.50;;;7.20;99.90;;;;;;5109609;28;20032;-62
2022/02/03 10:15:11;;;;;;;;;;;7.50;99.90;;;;;;5112221;28;20031;-62
2022/02/03 10:18:40;;;;;;;10.82;2.72;;;7.70;99.90;;;;;;5104012;28;19915;-62
2022/02/03 10:22:05;;;;;;;8.27;2.28;;;7.90;99.90;;;;;;5109424;28;20044;-62
2022/02/03 10:25:33;;;;;;;7.25;2.47;;;8.10;99.90;;;;;;5111304;28;20049;-62
2022/02/03 10:28:58;;;;;;;8.75;2.30;;;8.20;99.90;;;;;;5103464;28;20059;-62
2022/02/03 10:32:21;;;;;;;5.97;2.53;;;8.30;99.90;;;;;;5103114;28;20062;-62
2022/02/03 10:35:17;;;;;;;9.88;3.15;;;8.30;99.90;;;;;;5110978;28;20036;-62
2022/02/03 10:42:03;;;;;;;10.75;2.83;;;8.30;99.90;;;;;;5094873;28;20028;-62
2022/02/03 10:49:03;;;;;;;11.00;3.78;;;8.40;99.90;;;;;;5106503;28;20129;-62
2022/02/03 10:59:06;;;;;;;10.25;3.58;;;8.20;99.90;;;;;;5107771;28;20077;-61
2022/02/03 11:02:32;;;;;;;10.02;2.97;;;8.00;99.90;;;;;;5100170;28;20067;-62
2022/02/03 11:06:08;;;;;;;8.20;3.25;;;8.00;99.90;;;;;;5107038;28;20062;-62
2022/02/03 11:09:24;;;;;;;15.05;4.10;;;7.90;99.90;;;;;;5103805;28;20601;-61
2022/02/03 11:12:46;;;;;;;9.57;3.42;;;7.80;99.90;;;;;;5105127;28;20093;-61
2022/02/03 11:16:11;;;;;;;10.32;3.63;;;7.70;99.90;;;;;;5104333;28;20031;-62
2022/02/03 11:19:39;;;;;;;10.68;2.95;;;7.60;99.90;;;;;;5107198;28;20071;-61
2022/02/03 11:23:08;;;;;;;;;;;7.60;99.90;;;;;;5107893;28;20073;-62
2022/02/03 11:26:33;;;;;;;8.57;2.70;;;7.60;99.90;;;;;;5101526;28;19919;-62
2022/02/03 11:30:18;;;;;;;12.65;3.33;;;7.60;99.90;;;;;;5109053;28;20680;-62
2022/02/03 11:40:24;;;;;;;8.82;4.22;;;7.60;99.90;;;;;;5053192;28;20025;-63
2022/02/03 11:43:54;;;;;;;11.27;3.95;;;7.50;99.90;;;;;;5097837;28;20028;-62
2022/02/03 11:47:11;;;;;;;10.32;4.10;;;7.50;99.90;;;;;;5105232;28;20039;-62
2022/02/03 11:55:47;;;;;;;13.32;4.00;;;7.20;99.90;;;;;;5097808;28;20399;-62
2022/02/03 12:18:04;;;;;;;11.35;4.75;;;7.00;99.90;;;;;;5100636;28;20034;-62
2022/02/03 12:20:44;;;;;;;8.98;3.85;;;7.00;99.90;;;;;;5101421;28;20040;-62
2022/02/03 12:26:44;;;;;;;8.43;4.30;;;7.00;99.90;;;;;;5087395;28;20442;-61
2022/02/03 12:29:16;;;;;;;11.13;5.05;;;7.00;99.90;;;;;;5109091;28;20032;-62
2022/02/03 12:31:58;;;;;;;13.13;5.07;;;7.00;99.90;;;;;;5091730;28;20035;-62
2022/02/03 12:37:34;;;;;;;10.25;4.47;;;6.90;99.90;;;;;;5085367;28;20088;-62
2022/02/03 12:40:03;;;;;;;8.60;4.25;;;6.90;99.90;;;;;;5088960;28;20039;-62
2022/02/03 12:46:27;;;;;;;7.65;3.83;;;6.90;99.90;;;;;;5106185;28;20100;-62
2022/02/03 12:49:52;;;;;;;6.35;3.38;;;6.90;99.90;;;;;;5107321;28;20024;-62
2022/02/03 12:53:16;;;;;;;8.05;4.07;;;6.90;99.90;;;;;;5106655;28;20404;-62
2022/02/03 12:56:42;;;;;;;9.27;3.60;;;6.80;99.90;;;;;;5111056;28;20051;-60
2022/02/03 13:00:12;;;;;;;5.65;3.42;;;6.80;99.90;;;;;;5103329;28;20069;-63
2022/02/03 13:03:45;;;;;;;5.97;3.50;;;6.80;99.90;;;;;;5109732;28;20036;-63
2022/02/03 13:07:09;;;;;;;4.28;2.53;;;6.80;99.90;;;;;;5112384;28;20048;-62
2022/02/03 13:10:35;;;;;;;4.38;2.50;;;6.80;99.90;;;;;;5106647;28;20180;-62
2022/02/03 13:20:16;;;;;;;6.43;2.72;;;6.90;99.90;;;;;;5103640;28;20112;-61
2022/02/03 13:23:47;;;;;;;4.78;3.03;;;6.90;99.90;;;;;;5090491;28;20575;-60
2022/02/03 13:27:09;;;;;;;5.53;3.08;;;6.90;99.90;;;;;;5111127;28;20047;-61
2022/02/03 13:30:32;;;;;;;4.13;3.05;;;7.00;99.90;;;;;;5106024;28;20398;-61
2022/02/03 13:34:27;;;;;;;3.88;2.67;;;6.90;99.90;;;;;;5104685;28;20031;-61
2022/02/03 13:37:29;;;;;;;6.15;2.95;;;7.00;99.90;;;;;;5091958;28;20040;-59
2022/02/03 13:40:51;;;;;;;3.63;2.40;;;7.00;99.90;;;;;;5108173;28;20160;-58
2022/02/03 13:44:24;;;;;;;3.05;2.55;;;7.00;99.90;;;;;;5100284;28;20043;-59
2022/02/03 13:47:59;;;;;;;7.75;3.30;;;7.00;99.90;;;;;;5106419;28;20495;-59
2022/02/03 13:51:30;;;;;;;10.48;5.78;;;6.90;99.90;;;;;;5109337;28;20090;-59
2022/02/03 14:15:37;;;;;;;6.90;4.57;;;6.80;99.90;;;;;;5101622;28;20058;-59
2022/02/03 14:22:00;;;;;;;4.95;3.92;;;6.80;99.90;;;;;;5111362;28;20050;-59
2022/02/03 14:28:44;;;;;;;6.38;4.13;;;6.80;99.90;;;;;;5090500;28;20616;-59
2022/02/03 14:32:10;;;;;;;4.35;3.78;;;6.80;99.90;;;;;;5111152;28;20131;-59
2022/02/03 14:35:34;;;;;;;4.70;3.28;;;6.80;99.90;;;;;;5105584;28;20081;-58
2022/02/03 14:42:14;;;;;;;5.60;3.85;;;6.80;99.90;;;;;;5104608;28;20038;-58
2022/02/03 14:45:39;;;;;;;5.95;3.17;;;6.80;99.90;;;;;;5090822;28;20052;-59
2022/02/03 14:49:05;;;;;;;4.15;3.25;;;6.80;99.90;;;;;;5104724;28;20040;-59
2022/02/03 14:52:33;;;;;;;5.88;4.20;;;6.80;99.90;;;;;;5103574;28;20037;-59
2022/02/03 14:59:19;;;;;;;4.90;3.78;;;6.80;99.90;;;;;;5106636;28;20505;-59
2022/02/03 15:02:44;;;;;;;6.60;3.70;;;6.80;99.90;;;;;;5102917;28;20039;-58
2022/02/03 15:06:12;;;;;;;5.93;3.80;;;6.70;99.90;;;;;;5090702;28;20046;-59
2022/02/03 15:12:56;;;;;;;6.40;4.38;;;6.70;99.90;;;;;;5103061;28;20023;-59
2022/02/03 15:16:06;;;;;;;5.82;3.90;;;6.70;99.90;;;;;;5089957;28;20032;-59
2022/02/03 15:19:31;;;;;;;6.90;3.95;;;6.70;99.90;;;;;;5107739;28;20120;-59
2022/02/03 15:22:57;;;;;;;6.70;4.10;;;6.70;99.90;;;;;;5094289;28;20035;-59
2022/02/03 15:26:22;;;;;;;8.05;4.57;;;6.70;99.90;;;;;;5090219;28;20151;-59
2022/02/03 15:29:49;;;;;;;5.90;4.05;;;6.70;99.90;;;;;;5104412;28;20028;-59
2022/02/03 15:33:13;;;;;;;5.22;3.83;;;6.70;99.90;;;;;;5102309;28;20096;-59
2022/02/03 15:36:39;;;;;;;5.82;4.40;;;6.70;99.90;;;;;;5089766;28;20063;-59
2022/02/03 15:40:09;;;;;;;6.05;4.38;;;6.60;99.90;;;;;;5103969;28;20096;-59
2022/02/03 15:43:37;;;;;;;7.22;4.72;;;6.60;99.90;;;;;;5093897;28;20031;-59
2022/02/03 15:47:02;;;;;;;6.38;4.28;;;6.70;99.90;;;;;;5101709;28;20051;-59
2022/02/03 15:49:58;;;;;;;4.18;3.35;;;6.70;99.90;;;;;;5089801;28;20055;-60
2022/02/03 16:19:05;;;;;;;11.02;5.13;;;6.80;99.90;;;;;;5086548;28;20089;-61
2022/02/03 16:52:45;;;;;;;12.02;7.95;;;6.80;99.90;;;;;;5101551;28;20046;-60
2022/02/03 16:56:10;;;;;;;9.82;7.43;;;6.80;99.90;;;;;;5097789;28;20035;-60
2022/02/03 16:59:35;;;;;;;9.73;6.65;;;6.80;99.90;;;;;;5094421;28;20674;-60
2022/02/03 17:02:57;;;;;;;13.10;7.03;;;6.80;99.90;;;;;;5102887;28;20499;-60
2022/02/03 17:06:23;;;;;;;10.63;7.13;;;6.80;99.90;;;;;;5103025;28;20415;-59
2022/02/03 17:09:49;;;;;;;11.85;7.63;;;6.80;99.90;;;;;;5100513;28;20031;-59
2022/02/03 17:13:14;;;;;;;13.27;8.20;;;6.80;99.90;;;;;;5104184;28;20574;-60
2022/02/03 17:16:39;;;;;;;10.75;7.40;;;6.80;99.90;;;;;;5101963;28;20035;-60
2022/02/03 17:20:04;;;;;;;10.57;7.32;;;6.80;99.90;;;;;;5099616;28;20047;-60
2022/02/03 17:23:30;;;;;;;11.10;6.82;;;6.80;99.90;;;;;;5105424;28;20406;-60
2022/02/03 17:27:02;;;;;;;9.95;6.80;;;6.80;99.90;;;;;;5094976;28;20048;-60
2022/02/03 17:31:00;;;;;;;11.25;7.35;;;6.90;99.90;;;;;;5090460;28;20123;-60
2022/02/03 17:55:17;;;;;;;9.05;6.18;;;6.90;99.90;;;;;;5107706;28;20046;-60
2022/02/03 18:31:30;;;;;;;14.27;8.93;;;6.90;99.90;;;;;;5092146;28;20050;-60
2022/02/03 18:51:38;;;;;;;17.65;10.10;;;7.00;99.90;;;;;;5092350;28;20034;-60
2022/02/03 18:58:33;;;;;;;14.15;8.85;;;7.00;99.90;;;;;;5103163;28;20038;-60
2022/02/03 19:09:38;;;;;;;14.20;9.23;;;7.00;99.90;;;;;;5104942;28;20042;-60
2022/02/03 19:15:38;;;;;;;21.70;11.45;;;7.10;99.90;;;;;;5095271;28;20660;-60
2022/02/03 19:21:10;;;;;;;24.05;11.98;;;7.00;99.90;;;;;;5100328;28;20028;-60
2022/02/03 19:23:20;;;;;;;23.20;12.88;;;7.00;99.90;;;;;;5099627;28;20044;-60
2022/02/03 19:29:09;;;;;;;18.88;10.27;;;7.10;99.90;;;;;;5101434;28;20043;-59
2022/02/03 20:12:42;;;;;;;18.60;9.75;;;7.20;99.90;;;;;;5107129;28;20053;-59
2022/02/03 20:16:08;;;;;;;14.50;9.13;;;7.10;99.90;;;;;;5103830;28;20067;-60
2022/02/03 20:19:35;;;;;;;14.23;8.27;;;7.10;99.90;;;;;;5099470;28;20035;-59
2022/02/03 20:23:02;;;;;;;17.90;9.73;;;7.10;99.90;;;;;;5100913;28;20040;-60
2022/02/03 20:26:24;;;;;;;16.33;9.40;;;7.20;99.90;;;;;;5104484;28;20048;-60
2022/02/03 20:29:49;;;;;;;15.95;8.65;;;7.20;99.90;;;;;;5097964;28;20110;-60
2022/02/03 20:33:17;;;;;;;16.35;9.30;;;7.20;99.90;;;;;;5098910;28;20130;-59
2022/02/03 20:36:43;;;;;;;17.73;10.80;;;7.20;99.90;;;;;;5104621;28;20036;-60
2022/02/03 20:40:08;;;;;;;22.38;11.48;;;7.20;99.90;;;;;;5100398;28;20085;-61
2022/02/03 20:43:34;;;;;;;23.05;11.32;;;7.20;99.90;;;;;;5095087;28;20031;-60
2022/02/03 20:46:59;;;;;;;17.83;9.90;;;7.20;99.90;;;;;;5106538;28;20047;-60
2022/02/03 20:50:24;;;;;;;14.80;9.50;;;7.20;99.90;;;;;;5103326;28;20040;-60
2022/02/03 20:53:50;;;;;;;15.90;9.60;;;7.20;99.90;;;;;;5100737;28;20118;-60
2022/02/03 20:57:15;;;;;;;13.82;9.07;;;7.20;99.90;;;;;;5106486;28;20118;-60
2022/02/03 21:00:55;;;;;;;16.58;9.40;;;7.20;99.90;;;;;;5086387;28;20392;-60
2022/02/03 21:04:28;;;;;;;15.40;8.63;;;7.20;99.90;;;;;;5088072;28;20381;-60
2022/02/03 21:07:44;;;;;;;13.65;8.52;;;7.10;99.90;;;;;;5098119;28;20035;-60
2022/02/03 21:11:09;;;;;;;13.85;7.97;;;7.10;99.90;;;;;;5090194;28;20028;-60
2022/02/03 21:14:34;;;;;;;13.27;8.73;;;7.20;99.90;;;;;;5099820;28;20042;-61
2022/02/03 21:18:08;;;;;;;13.57;8.45;;;7.20;99.90;;;;;;5104651;28;20040;-60
2022/02/03 21:21:30;;;;;;;17.15;10.13;;;7.20;99.90;;;;;;5107377;28;20048;-60
2022/02/03 21:25:00;;;;;;;12.43;7.72;;;7.20;99.90;;;;;;5091145;28;20053;-60
2022/02/03 21:28:22;;;;;;;13.60;8.13;;;7.20;99.90;;;;;;5099855;28;20070;-59
2022/02/03 21:31:43;;;;;;;19.08;9.75;;;7.20;99.90;;;;;;5109565;28;20028;-60
2022/02/03 21:35:09;;;;;;;14.82;8.43;;;7.20;99.90;;;;;;5103104;28;20040;-60
2022/02/03 21:38:34;;;;;;;13.52;8.35;;;7.20;99.90;;;;;;5102141;28;20035;-60
2022/02/03 21:42:00;;;;;;;14.50;8.57;;;7.20;99.90;;;;;;5093721;28;20082;-60
2022/02/03 21:45:27;;;;;;;16.65;8.85;;;7.20;99.90;;;;;;5106360;28;20055;-60
2022/02/03 21:48:11;;;;;;;17.80;10.65;;;7.10;99.90;;;;;;5102021;28;20032;-59
2022/02/03 21:50:40;;;;;;;13.70;8.45;;;7.20;99.90;;;;;;5109716;28;20038;-58
2022/02/03 21:53:45;;;;;;;15.10;8.68;;;7.20;99.90;;;;;;5089095;28;20600;-58
2022/02/03 21:57:11;;;;;;;16.98;9.00;;;7.10;99.90;;;;;;5089361;28;20043;-60
2022/02/03 22:00:36;;;;;;;16.20;9.48;;;7.20;99.90;;;;;;5103236;28;20063;-59
2022/02/03 22:04:01;;;;;;;14.43;8.10;;;7.10;99.90;;;;;;5093717;28;20533;-58
2022/02/03 22:07:26;;;;;;;15.80;7.68;;;7.20;99.90;;;;;;5089220;28;20040;-58
2022/02/03 22:10:52;;;;;;;15.13;8.88;;;7.20;99.90;;;;;;5103616;28;20055;-60
2022/02/03 22:14:17;;;;;;;12.82;7.65;;;7.20;99.90;;;;;;5104645;28;20051;-58
2022/02/03 22:17:43;;;;;;;13.57;7.93;;;7.20;99.90;;;;;;5103197;28;20032;-59
2022/02/03 22:21:21;;;;;;;14.02;7.60;;;7.10;99.90;;;;;;5107403;28;20040;-58
2022/02/03 22:24:35;;;;;;;;;;;7.10;99.90;;;;;;5102492;28;20040;-59
2022/02/03 22:28:06;;;;;;;14.98;8.02;;;7.10;99.90;;;;;;5096705;28;19963;-59
2022/02/03 22:44:56;;;;;;;10.15;7.00;;;7.10;99.90;;;;;;5089103;28;20089;-59
2022/02/03 22:51:28;;;;;;;5.93;4.05;;;7.00;99.90;;;;;;5108600;28;20594;-59
2022/02/03 22:54:53;;;;;;;5.82;3.58;;;6.90;99.90;;;;;;5104730;28;20051;-58
2022/02/03 23:01:42;;;;;;;5.47;3.40;;;6.80;99.90;;;;;;5108443;28;20085;-59
2022/02/03 23:05:08;;;;;;;5.70;3.58;;;6.80;99.90;;;;;;5086762;28;20047;-60
2022/02/03 23:08:54;;;;;;;4.45;3.30;;;6.70;99.90;;;;;;5100535;28;20038;-59
2022/02/03 23:18:30;;;;;;;7.07;4.75;;;6.60;99.90;;;;;;5100117;28;20098;-58
2022/02/03 23:21:54;;;;;;;4.78;3.17;;;6.60;99.90;;;;;;5105118;28;20710;-58
2022/02/03 23:25:16;;;;;;;7.45;4.38;;;6.60;99.90;;;;;;5085406;28;20048;-58
2022/02/03 23:28:40;;;;;;;6.47;4.10;;;6.50;99.90;;;;;;5102621;28;20066;-60
2022/02/03 23:32:09;;;;;;;6.53;4.15;;;6.50;99.90;;;;;;5105275;28;20486;-59
2022/02/03 23:35:33;;;;;;;9.77;5.25;;;6.50;99.90;;;;;;5103059;28;20036;-59
2022/02/03 23:39:20;;;;;;;9.18;5.43;;;6.40;99.90;;;;;;5093590;28;20035;-58
2022/02/03 23:43:12;;;;;;;10.52;5.13;;;6.40;99.90;;;;;;5096083;28;20035;-59
